sensor_id;sensor_type;location;lat;lon;timestamp;pressure;altitude;pressure_sealevel;temperature;humidity
53659;BME280;41524;35.624;139.698;2024-01-06T00:00:12;101317.00;;;20.91;24.82
53659;BME280;41524;35.624;139.698;2024-01-06T00:05:11;101322.00;;;19.94;25.89
53659;BME280;41524;35.624;139.698;2024-01-06T00:10:10;101317.00;;;17.87;26.89
53659;BME280;41524;35.624;139.698;2024-01-06T00:15:22;101306.00;;;20.30;25.63
53659;BME280;41524;35.624;139.698;2024-01-06T00:20:12;101298.00;;;22.28;23.01
53659;BME280;41524;35.624;139.698;2024-01-06T00:25:11;101303.00;;;19.10;25.15
53659;BME280;41524;35.624;139.698;2024-01-06T00:30:12;101303.00;;;12.10;32.60
53659;BME280;41524;35.624;139.698;2024-01-06T00:35:12;101292.00;;;12.48;36.94
53659;BME280;41524;35.624;139.698;2024-01-06T00:40:12;101293.00;;;11.85;39.19
53659;BME280;41524;35.624;139.698;2024-01-06T00:45:11;101288.00;;;10.14;42.40
53659;BME280;41524;35.624;139.698;2024-01-06T00:50:11;101275.00;;;10.97;40.44
53659;BME280;41524;35.624;139.698;2024-01-06T00:55:11;101261.00;;;13.59;38.55
53659;BME280;41524;35.624;139.698;2024-01-06T01:00:12;101257.00;;;12.45;39.03
53659;BME280;41524;35.624;139.698;2024-01-06T01:05:11;101253.00;;;11.98;41.54
53659;BME280;41524;35.624;139.698;2024-01-06T01:10:11;101241.00;;;13.84;39.03
53659;BME280;41524;35.624;139.698;2024-01-06T01:15:10;101237.00;;;12.11;39.81
53659;BME280;41524;35.624;139.698;2024-01-06T01:20:11;101221.00;;;12.83;39.08
53659;BME280;41524;35.624;139.698;2024-01-06T01:25:11;101212.00;;;13.20;39.00
53659;BME280;41524;35.624;139.698;2024-01-06T01:30:12;101198.00;;;12.85;38.32
53659;BME280;41524;35.624;139.698;2024-01-06T01:35:11;101182.00;;;12.53;38.67
53659;BME280;41524;35.624;139.698;2024-01-06T01:40:11;101167.00;;;12.99;38.62
53659;BME280;41524;35.624;139.698;2024-01-06T01:45:11;101149.00;;;14.35;37.73
53659;BME280;41524;35.624;139.698;2024-01-06T01:50:12;101144.00;;;14.22;37.73
53659;BME280;41524;35.624;139.698;2024-01-06T01:55:10;101132.00;;;14.22;36.30
53659;BME280;41524;35.624;139.698;2024-01-06T02:00:12;101121.00;;;15.14;36.69
53659;BME280;41524;35.624;139.698;2024-01-06T02:05:11;101111.00;;;11.95;39.36
53659;BME280;41524;35.624;139.698;2024-01-06T02:10:11;101098.00;;;15.49;35.81
53659;BME280;41524;35.624;139.698;2024-01-06T02:15:10;101089.00;;;15.36;35.59
53659;BME280;41524;35.624;139.698;2024-01-06T02:20:11;101071.00;;;14.54;34.68
53659;BME280;41524;35.624;139.698;2024-01-06T02:25:10;101063.00;;;15.40;35.07
53659;BME280;41524;35.624;139.698;2024-01-06T02:30:11;101051.00;;;14.66;35.26
53659;BME280;41524;35.624;139.698;2024-01-06T02:35:10;101043.00;;;15.65;33.93
53659;BME280;41524;35.624;139.698;2024-01-06T02:40:13;101031.00;;;16.01;33.60
53659;BME280;41524;35.624;139.698;2024-01-06T02:45:26;101017.00;;;16.88;31.99
53659;BME280;41524;35.624;139.698;2024-01-06T02:50:10;100997.00;;;16.86;31.59
53659;BME280;41524;35.624;139.698;2024-01-06T02:55:11;100992.00;;;15.77;32.29
53659;BME280;41524;35.624;139.698;2024-01-06T03:00:12;100983.00;;;16.23;31.66
53659;BME280;41524;35.624;139.698;2024-01-06T03:05:11;100972.00;;;15.71;31.57
53659;BME280;41524;35.624;139.698;2024-01-06T03:10:10;100957.00;;;16.98;30.54
53659;BME280;41524;35.624;139.698;2024-01-06T03:15:10;100951.00;;;16.78;31.24
53659;BME280;41524;35.624;139.698;2024-01-06T03:20:11;100939.00;;;17.48;30.96
53659;BME280;41524;35.624;139.698;2024-01-06T03:25:10;100928.00;;;15.40;32.57
53659;BME280;41524;35.624;139.698;2024-01-06T03:30:12;100923.00;;;18.28;29.95
53659;BME280;41524;35.624;139.698;2024-01-06T03:35:10;100911.00;;;17.87;29.37
53659;BME280;41524;35.624;139.698;2024-01-06T03:40:12;100897.00;;;18.27;28.89
53659;BME280;41524;35.624;139.698;2024-01-06T03:45:11;100885.00;;;20.57;26.52
53659;BME280;41524;35.624;139.698;2024-01-06T03:50:11;100871.00;;;21.42;25.44
53659;BME280;41524;35.624;139.698;2024-01-06T03:55:11;100866.00;;;24.63;22.67
53659;BME280;41524;35.624;139.698;2024-01-06T04:00:12;100853.00;;;26.86;20.57
53659;BME280;41524;35.624;139.698;2024-01-06T04:05:11;100839.00;;;32.26;16.73
53659;BME280;41524;35.624;139.698;2024-01-06T04:10:11;100837.00;;;31.54;16.06
53659;BME280;41524;35.624;139.698;2024-01-06T04:15:11;100837.00;;;30.28;16.39
53659;BME280;41524;35.624;139.698;2024-01-06T04:20:11;100826.00;;;32.94;14.87
53659;BME280;41524;35.624;139.698;2024-01-06T04:25:11;100819.00;;;32.86;14.64
53659;BME280;41524;35.624;139.698;2024-01-06T04:30:12;100811.00;;;29.52;16.02
53659;BME280;41524;35.624;139.698;2024-01-06T04:35:11;100800.00;;;33.89;13.69
53659;BME280;41524;35.624;139.698;2024-01-06T04:40:12;100792.00;;;34.09;13.15
53659;BME280;41524;35.624;139.698;2024-01-06T04:45:11;100783.00;;;33.72;13.23
53659;BME280;41524;35.624;139.698;2024-01-06T04:50:12;100776.00;;;30.41;14.91
53659;BME280;41524;35.624;139.698;2024-01-06T04:55:11;100790.00;;;12.45;30.10
53659;BME280;41524;35.624;139.698;2024-01-06T05:00:16;100788.00;;;15.54;27.82
53659;BME280;41524;35.624;139.698;2024-01-06T05:05:10;100790.00;;;15.66;28.33
53659;BME280;41524;35.624;139.698;2024-01-06T05:10:11;100784.00;;;15.45;28.23
53659;BME280;41524;35.624;139.698;2024-01-06T05:15:11;100777.00;;;14.34;29.34
53659;BME280;41524;35.624;139.698;2024-01-06T05:20:11;100773.00;;;13.15;31.27
53659;BME280;41524;35.624;139.698;2024-01-06T05:25:10;100769.00;;;14.41;30.43
53659;BME280;41524;35.624;139.698;2024-01-06T05:30:11;100765.00;;;15.04;30.08
53659;BME280;41524;35.624;139.698;2024-01-06T05:35:11;100760.00;;;15.45;29.49
53659;BME280;41524;35.624;139.698;2024-01-06T05:40:11;100758.00;;;14.85;29.79
53659;BME280;41524;35.624;139.698;2024-01-06T05:45:12;100758.00;;;13.38;32.01
53659;BME280;41524;35.624;139.698;2024-01-06T05:50:10;100750.00;;;15.11;30.43
53659;BME280;41524;35.624;139.698;2024-01-06T05:55:11;100751.00;;;13.55;31.07
53659;BME280;41524;35.624;139.698;2024-01-06T06:00:11;100747.00;;;14.68;30.63
53659;BME280;41524;35.624;139.698;2024-01-06T06:05:10;100742.00;;;14.28;31.17
53659;BME280;41524;35.624;139.698;2024-01-06T06:10:12;100735.00;;;14.80;30.88
53659;BME280;41524;35.624;139.698;2024-01-06T06:15:10;100736.00;;;14.12;31.55
53659;BME280;41524;35.624;139.698;2024-01-06T06:20:11;100734.00;;;13.96;31.75
53659;BME280;41524;35.624;139.698;2024-01-06T06:25:11;100728.00;;;14.58;30.92
53659;BME280;41524;35.624;139.698;2024-01-06T06:30:11;100721.00;;;14.54;31.67
53659;BME280;41524;35.624;139.698;2024-01-06T06:35:10;100723.00;;;13.64;32.72
53659;BME280;41524;35.624;139.698;2024-01-06T06:40:11;100725.00;;;13.30;34.37
53659;BME280;41524;35.624;139.698;2024-01-06T06:45:11;100723.00;;;13.34;34.62
53659;BME280;41524;35.624;139.698;2024-01-06T06:50:11;100731.00;;;12.83;34.68
53659;BME280;41524;35.624;139.698;2024-01-06T06:55:10;100725.00;;;13.63;35.02
53659;BME280;41524;35.624;139.698;2024-01-06T07:00:11;100726.00;;;14.14;34.30
53659;BME280;41524;35.624;139.698;2024-01-06T07:05:11;100729.00;;;13.50;34.91
53659;BME280;41524;35.624;139.698;2024-01-06T07:10:12;100733.00;;;12.56;35.97
53659;BME280;41524;35.624;139.698;2024-01-06T07:15:11;100731.00;;;13.59;35.40
53659;BME280;41524;35.624;139.698;2024-01-06T07:20:12;100730.00;;;12.91;36.00
53659;BME280;41524;35.624;139.698;2024-01-06T07:25:11;100731.00;;;13.00;36.16
53659;BME280;41524;35.624;139.698;2024-01-06T07:30:12;100729.00;;;13.19;36.36
53659;BME280;41524;35.624;139.698;2024-01-06T07:35:11;100721.00;;;13.81;35.27
53659;BME280;41524;35.624;139.698;2024-01-06T07:40:12;100725.00;;;13.12;36.17
53659;BME280;41524;35.624;139.698;2024-01-06T07:45:11;100715.00;;;14.49;34.15
53659;BME280;41524;35.624;139.698;2024-01-06T07:50:10;100718.00;;;13.38;35.53
53659;BME280;41524;35.624;139.698;2024-01-06T07:55:11;100718.00;;;13.73;34.94
53659;BME280;41524;35.624;139.698;2024-01-06T08:00:14;100730.00;;;12.92;37.35
53659;BME280;41524;35.624;139.698;2024-01-06T08:05:10;100736.00;;;12.93;37.04
53659;BME280;41524;35.624;139.698;2024-01-06T08:10:10;100734.00;;;11.75;38.68
53659;BME280;41524;35.624;139.698;2024-01-06T08:15:11;100739.00;;;12.63;38.13
53659;BME280;41524;35.624;139.698;2024-01-06T08:20:11;100740.00;;;12.34;39.19
53659;BME280;41524;35.624;139.698;2024-01-06T08:25:11;100737.00;;;12.26;39.27
53659;BME280;41524;35.624;139.698;2024-01-06T08:30:12;100740.00;;;11.96;39.71
53659;BME280;41524;35.624;139.698;2024-01-06T08:35:11;100752.00;;;11.22;41.52
53659;BME280;41524;35.624;139.698;2024-01-06T08:40:21;100754.00;;;11.72;41.16
53659;BME280;41524;35.624;139.698;2024-01-06T08:45:11;100761.00;;;11.93;41.38
53659;BME280;41524;35.624;139.698;2024-01-06T08:50:11;100754.00;;;11.34;41.74
53659;BME280;41524;35.624;139.698;2024-01-06T08:55:10;100751.00;;;11.42;41.98
53659;BME280;41524;35.624;139.698;2024-01-06T09:00:11;100756.00;;;11.22;42.66
53659;BME280;41524;35.624;139.698;2024-01-06T09:05:11;100755.00;;;11.10;43.19
53659;BME280;41524;35.624;139.698;2024-01-06T09:10:11;100741.00;;;11.30;42.40
53659;BME280;41524;35.624;139.698;2024-01-06T09:15:11;100736.00;;;11.17;43.34
53659;BME280;41524;35.624;139.698;2024-01-06T09:20:11;100728.00;;;10.82;43.80
53659;BME280;41524;35.624;139.698;2024-01-06T09:25:12;100723.00;;;12.43;41.73
53659;BME280;41524;35.624;139.698;2024-01-06T09:30:12;100725.00;;;9.71;46.88
53659;BME280;41524;35.624;139.698;2024-01-06T09:35:11;100733.00;;;11.08;44.93
53659;BME280;41524;35.624;139.698;2024-01-06T09:40:14;100726.00;;;10.90;45.14
53659;BME280;41524;35.624;139.698;2024-01-06T09:45:11;100724.00;;;11.14;45.42
53659;BME280;41524;35.624;139.698;2024-01-06T09:50:11;100724.00;;;12.37;43.05
53659;BME280;41524;35.624;139.698;2024-01-06T09:55:12;100717.00;;;12.18;43.44
53659;BME280;41524;35.624;139.698;2024-01-06T10:00:12;100720.00;;;11.97;43.72
53659;BME280;41524;35.624;139.698;2024-01-06T10:05:12;100717.00;;;11.79;44.73
53659;BME280;41524;35.624;139.698;2024-01-06T10:10:11;100716.00;;;11.22;45.31
53659;BME280;41524;35.624;139.698;2024-01-06T10:15:11;100711.00;;;11.29;45.65
53659;BME280;41524;35.624;139.698;2024-01-06T10:20:12;100706.00;;;11.57;45.27
53659;BME280;41524;35.624;139.698;2024-01-06T10:25:11;100705.00;;;12.05;44.51
53659;BME280;41524;35.624;139.698;2024-01-06T10:30:11;100707.00;;;12.21;43.77
53659;BME280;41524;35.624;139.698;2024-01-06T10:35:10;100702.00;;;12.15;44.67
53659;BME280;41524;35.624;139.698;2024-01-06T10:40:12;100697.00;;;11.38;45.44
53659;BME280;41524;35.624;139.698;2024-01-06T10:45:12;100691.00;;;12.20;43.82
53659;BME280;41524;35.624;139.698;2024-01-06T10:50:11;100691.00;;;11.70;45.03
53659;BME280;41524;35.624;139.698;2024-01-06T10:55:11;100694.00;;;11.25;45.80
53659;BME280;41524;35.624;139.698;2024-01-06T11:00:12;100691.00;;;11.00;45.94
53659;BME280;41524;35.624;139.698;2024-01-06T11:05:10;100684.00;;;12.44;43.82
53659;BME280;41524;35.624;139.698;2024-01-06T11:10:15;100696.00;;;10.25;46.94
53659;BME280;41524;35.624;139.698;2024-01-06T11:15:10;100694.00;;;10.01;47.64
53659;BME280;41524;35.624;139.698;2024-01-06T11:20:11;100689.00;;;10.63;46.52
53659;BME280;41524;35.624;139.698;2024-01-06T11:25:15;100690.00;;;9.67;47.95
53659;BME280;41524;35.624;139.698;2024-01-06T11:30:20;100679.00;;;10.44;46.58
53659;BME280;41524;35.624;139.698;2024-01-06T11:35:11;100676.00;;;10.37;47.38
53659;BME280;41524;35.624;139.698;2024-01-06T11:40:21;100678.00;;;9.90;48.16
53659;BME280;41524;35.624;139.698;2024-01-06T11:45:11;100677.00;;;10.50;46.47
53659;BME280;41524;35.624;139.698;2024-01-06T11:50:11;100679.00;;;10.87;46.04
53659;BME280;41524;35.624;139.698;2024-01-06T11:55:11;100682.00;;;10.13;47.34
53659;BME280;41524;35.624;139.698;2024-01-06T12:00:12;100684.00;;;9.92;47.83
53659;BME280;41524;35.624;139.698;2024-01-06T12:05:16;100682.00;;;9.57;48.34
53659;BME280;41524;35.624;139.698;2024-01-06T12:10:11;100683.00;;;9.94;48.02
53659;BME280;41524;35.624;139.698;2024-01-06T12:15:10;100688.00;;;10.01;47.74
53659;BME280;41524;35.624;139.698;2024-01-06T12:20:11;100692.00;;;10.13;47.37
53659;BME280;41524;35.624;139.698;2024-01-06T12:25:11;100682.00;;;9.64;46.89
53659;BME280;41524;35.624;139.698;2024-01-06T12:30:17;100685.00;;;9.94;46.19
53659;BME280;41524;35.624;139.698;2024-01-06T12:35:11;100688.00;;;9.74;46.44
53659;BME280;41524;35.624;139.698;2024-01-06T12:40:12;100700.00;;;9.01;47.26
53659;BME280;41524;35.624;139.698;2024-01-06T12:45:11;100704.00;;;9.09;47.05
53659;BME280;41524;35.624;139.698;2024-01-06T12:50:10;100696.00;;;9.68;45.72
53659;BME280;41524;35.624;139.698;2024-01-06T12:55:10;100696.00;;;9.80;45.38
53659;BME280;41524;35.624;139.698;2024-01-06T13:00:11;100690.00;;;9.68;45.46
53659;BME280;41524;35.624;139.698;2024-01-06T13:05:10;100696.00;;;9.51;46.09
53659;BME280;41524;35.624;139.698;2024-01-06T13:10:11;100696.00;;;9.51;44.65
53659;BME280;41524;35.624;139.698;2024-01-06T13:15:16;100702.00;;;9.24;44.37
53659;BME280;41524;35.624;139.698;2024-01-06T13:20:16;100698.00;;;9.14;43.07
53659;BME280;41524;35.624;139.698;2024-01-06T13:25:12;100694.00;;;9.11;43.03
53659;BME280;41524;35.624;139.698;2024-01-06T13:30:11;100688.00;;;9.33;43.11
53659;BME280;41524;35.624;139.698;2024-01-06T13:35:10;100685.00;;;8.63;43.90
53659;BME280;41524;35.624;139.698;2024-01-06T13:40:12;100690.00;;;8.23;44.82
53659;BME280;41524;35.624;139.698;2024-01-06T13:45:11;100689.00;;;8.78;44.41
53659;BME280;41524;35.624;139.698;2024-01-06T13:50:11;100700.00;;;9.11;43.99
53659;BME280;41524;35.624;139.698;2024-01-06T13:55:10;100708.00;;;8.78;43.70
53659;BME280;41524;35.624;139.698;2024-01-06T14:00:12;100721.00;;;8.83;43.22
53659;BME280;41524;35.624;139.698;2024-01-06T14:05:11;100716.00;;;10.09;41.83
53659;BME280;41524;35.624;139.698;2024-01-06T14:10:10;100722.00;;;10.37;41.82
53659;BME280;41524;35.624;139.698;2024-01-06T14:15:15;100733.00;;;9.09;43.85
53659;BME280;41524;35.624;139.698;2024-01-06T14:20:11;100722.00;;;9.48;42.77
53659;BME280;41524;35.624;139.698;2024-01-06T14:25:11;100725.00;;;9.40;43.40
53659;BME280;41524;35.624;139.698;2024-01-06T14:30:11;100722.00;;;7.41;46.46
53659;BME280;41524;35.624;139.698;2024-01-06T14:35:11;100716.00;;;8.58;44.40
53659;BME280;41524;35.624;139.698;2024-01-06T14:40:12;100713.00;;;9.39;43.11
53659;BME280;41524;35.624;139.698;2024-01-06T14:45:11;100701.00;;;8.41;44.36
53659;BME280;41524;35.624;139.698;2024-01-06T14:50:11;100691.00;;;8.07;44.78
53659;BME280;41524;35.624;139.698;2024-01-06T14:55:12;100677.00;;;7.91;45.83
53659;BME280;41524;35.624;139.698;2024-01-06T15:00:17;100669.00;;;7.93;45.97
53659;BME280;41524;35.624;139.698;2024-01-06T15:05:11;100670.00;;;7.71;46.43
53659;BME280;41524;35.624;139.698;2024-01-06T15:10:10;100673.00;;;7.58;46.61
53659;BME280;41524;35.624;139.698;2024-01-06T15:15:11;100678.00;;;7.69;46.10
53659;BME280;41524;35.624;139.698;2024-01-06T15:20:11;100670.00;;;7.79;45.72
53659;BME280;41524;35.624;139.698;2024-01-06T15:25:10;100667.00;;;7.64;46.69
53659;BME280;41524;35.624;139.698;2024-01-06T15:30:11;100663.00;;;8.40;44.99
53659;BME280;41524;35.624;139.698;2024-01-06T15:35:12;100653.00;;;7.75;45.91
53659;BME280;41524;35.624;139.698;2024-01-06T15:40:11;100656.00;;;7.98;45.79
53659;BME280;41524;35.624;139.698;2024-01-06T15:45:10;100658.00;;;8.25;45.79
53659;BME280;41524;35.624;139.698;2024-01-06T15:50:11;100659.00;;;8.37;46.02
53659;BME280;41524;35.624;139.698;2024-01-06T15:55:11;100658.00;;;7.67;46.65
53659;BME280;41524;35.624;139.698;2024-01-06T16:00:13;100654.00;;;8.12;45.93
53659;BME280;41524;35.624;139.698;2024-01-06T16:05:11;100651.00;;;7.41;47.58
53659;BME280;41524;35.624;139.698;2024-01-06T16:10:12;100645.00;;;8.64;45.81
53659;BME280;41524;35.624;139.698;2024-01-06T16:15:11;100632.00;;;7.15;48.12
53659;BME280;41524;35.624;139.698;2024-01-06T16:20:11;100619.00;;;7.02;48.87
53659;BME280;41524;35.624;139.698;2024-01-06T16:25:11;100620.00;;;7.32;47.61
53659;BME280;41524;35.624;139.698;2024-01-06T16:30:12;100618.00;;;6.66;49.14
53659;BME280;41524;35.624;139.698;2024-01-06T16:35:11;100608.00;;;7.38;47.41
53659;BME280;41524;35.624;139.698;2024-01-06T16:40:11;100611.00;;;6.57;49.37
53659;BME280;41524;35.624;139.698;2024-01-06T16:45:11;100603.00;;;7.35;47.59
53659;BME280;41524;35.624;139.698;2024-01-06T16:50:11;100594.00;;;7.04;48.59
53659;BME280;41524;35.624;139.698;2024-01-06T16:55:11;100594.00;;;7.34;48.19
53659;BME280;41524;35.624;139.698;2024-01-06T17:00:12;100594.00;;;7.41;48.29
53659;BME280;41524;35.624;139.698;2024-01-06T17:05:21;100588.00;;;7.15;48.61
53659;BME280;41524;35.624;139.698;2024-01-06T17:10:10;100588.00;;;7.17;48.60
53659;BME280;41524;35.624;139.698;2024-01-06T17:15:11;100573.00;;;6.70;49.86
53659;BME280;41524;35.624;139.698;2024-01-06T17:20:11;100559.00;;;7.60;48.61
53659;BME280;41524;35.624;139.698;2024-01-06T17:25:11;100561.00;;;7.82;48.57
53659;BME280;41524;35.624;139.698;2024-01-06T17:30:12;100557.00;;;7.31;48.86
53659;BME280;41524;35.624;139.698;2024-01-06T17:35:12;100556.00;;;6.84;49.30
53659;BME280;41524;35.624;139.698;2024-01-06T17:40:12;100545.00;;;6.57;49.54
53659;BME280;41524;35.624;139.698;2024-01-06T17:45:10;100539.00;;;7.06;49.51
53659;BME280;41524;35.624;139.698;2024-01-06T17:50:10;100549.00;;;6.98;49.34
53659;BME280;41524;35.624;139.698;2024-01-06T17:55:11;100554.00;;;6.75;50.56
53659;BME280;41524;35.624;139.698;2024-01-06T18:00:11;100554.00;;;7.18;49.14
53659;BME280;41524;35.624;139.698;2024-01-06T18:05:11;100551.00;;;6.44;51.05
53659;BME280;41524;35.624;139.698;2024-01-06T18:10:11;100553.00;;;6.75;50.01
53659;BME280;41524;35.624;139.698;2024-01-06T18:15:10;100541.00;;;6.76;49.75
53659;BME280;41524;35.624;139.698;2024-01-06T18:20:11;100551.00;;;7.61;49.23
53659;BME280;41524;35.624;139.698;2024-01-06T18:25:10;100553.00;;;6.76;50.12
53659;BME280;41524;35.624;139.698;2024-01-06T18:30:11;100550.00;;;6.10;51.87
53659;BME280;41524;35.624;139.698;2024-01-06T18:35:11;100553.00;;;5.55;52.36
53659;BME280;41524;35.624;139.698;2024-01-06T18:40:11;100545.00;;;6.32;50.48
53659;BME280;41524;35.624;139.698;2024-01-06T18:45:10;100540.00;;;6.63;50.85
53659;BME280;41524;35.624;139.698;2024-01-06T18:50:11;100534.00;;;6.70;50.26
53659;BME280;41524;35.624;139.698;2024-01-06T18:55:11;100526.00;;;6.49;50.14
53659;BME280;41524;35.624;139.698;2024-01-06T19:00:12;100535.00;;;5.87;51.79
53659;BME280;41524;35.624;139.698;2024-01-06T19:05:11;100533.00;;;6.21;51.38
53659;BME280;41524;35.624;139.698;2024-01-06T19:10:10;100508.00;;;6.19;50.83
53659;BME280;41524;35.624;139.698;2024-01-06T19:15:11;100506.00;;;6.38;50.72
53659;BME280;41524;35.624;139.698;2024-01-06T19:20:11;100509.00;;;6.27;51.33
53659;BME280;41524;35.624;139.698;2024-01-06T19:25:11;100511.00;;;5.79;51.89
53659;BME280;41524;35.624;139.698;2024-01-06T19:30:11;100511.00;;;6.58;50.42
53659;BME280;41524;35.624;139.698;2024-01-06T19:35:10;100505.00;;;6.29;50.36
53659;BME280;41524;35.624;139.698;2024-01-06T19:40:11;100508.00;;;6.53;50.09
53659;BME280;41524;35.624;139.698;2024-01-06T19:45:10;100502.00;;;6.38;50.21
53659;BME280;41524;35.624;139.698;2024-01-06T19:50:11;100506.00;;;6.48;49.73
53659;BME280;41524;35.624;139.698;2024-01-06T19:55:11;100511.00;;;6.32;50.73
53659;BME280;41524;35.624;139.698;2024-01-06T20:00:12;100516.00;;;6.47;50.24
53659;BME280;41524;35.624;139.698;2024-01-06T20:05:10;100512.00;;;6.73;49.95
53659;BME280;41524;35.624;139.698;2024-01-06T20:10:10;100525.00;;;6.12;50.22
53659;BME280;41524;35.624;139.698;2024-01-06T20:15:11;100535.00;;;6.34;49.65
53659;BME280;41524;35.624;139.698;2024-01-06T20:20:12;100543.00;;;5.44;51.38
53659;BME280;41524;35.624;139.698;2024-01-06T20:25:11;100546.00;;;5.94;50.60
53659;BME280;41524;35.624;139.698;2024-01-06T20:30:11;100551.00;;;5.38;52.14
53659;BME280;41524;35.624;139.698;2024-01-06T20:35:10;100560.00;;;5.59;51.37
53659;BME280;41524;35.624;139.698;2024-01-06T20:40:11;100554.00;;;6.71;49.63
53659;BME280;41524;35.624;139.698;2024-01-06T20:45:11;100569.00;;;5.64;51.79
53659;BME280;41524;35.624;139.698;2024-01-06T20:50:11;100573.00;;;5.69;51.20
53659;BME280;41524;35.624;139.698;2024-01-06T20:55:12;100572.00;;;5.42;51.74
53659;BME280;41524;35.624;139.698;2024-01-06T21:00:16;100590.00;;;5.11;51.94
53659;BME280;41524;35.624;139.698;2024-01-06T21:05:10;100594.00;;;5.49;48.99
53659;BME280;41524;35.624;139.698;2024-01-06T21:10:10;100604.00;;;6.73;44.05
53659;BME280;41524;35.624;139.698;2024-01-06T21:15:11;100598.00;;;6.59;41.14
53659;BME280;41524;35.624;139.698;2024-01-06T21:20:11;100610.00;;;6.53;39.53
53659;BME280;41524;35.624;139.698;2024-01-06T21:25:11;100616.00;;;6.41;39.55
53659;BME280;41524;35.624;139.698;2024-01-06T21:30:11;100630.00;;;6.59;40.05
53659;BME280;41524;35.624;139.698;2024-01-06T21:35:11;100627.00;;;6.16;40.41
53659;BME280;41524;35.624;139.698;2024-01-06T21:40:11;100628.00;;;6.08;40.29
53659;BME280;41524;35.624;139.698;2024-01-06T21:45:12;100636.00;;;6.94;39.55
53659;BME280;41524;35.624;139.698;2024-01-06T21:50:11;100644.00;;;6.16;40.87
53659;BME280;41524;35.624;139.698;2024-01-06T21:55:10;100662.00;;;6.04;41.34
53659;BME280;41524;35.624;139.698;2024-01-06T22:00:12;100650.00;;;6.02;41.66
53659;BME280;41524;35.624;139.698;2024-01-06T22:05:11;100671.00;;;6.33;41.11
53659;BME280;41524;35.624;139.698;2024-01-06T22:10:11;100690.00;;;5.73;41.48
53659;BME280;41524;35.624;139.698;2024-01-06T22:15:11;100693.00;;;6.23;40.99
53659;BME280;41524;35.624;139.698;2024-01-06T22:20:11;100706.00;;;5.65;41.44
53659;BME280;41524;35.624;139.698;2024-01-06T22:25:11;100708.00;;;5.76;41.59
53659;BME280;41524;35.624;139.698;2024-01-06T22:30:12;100716.00;;;6.50;41.06
53659;BME280;41524;35.624;139.698;2024-01-06T22:35:11;100721.00;;;6.64;40.66
53659;BME280;41524;35.624;139.698;2024-01-06T22:40:11;100735.00;;;6.42;40.51
53659;BME280;41524;35.624;139.698;2024-01-06T22:45:11;100730.00;;;5.86;40.22
53659;BME280;41524;35.624;139.698;2024-01-06T22:50:10;100749.00;;;6.51;39.27
53659;BME280;41524;35.624;139.698;2024-01-06T22:55:11;100752.00;;;6.93;38.28
53659;BME280;41524;35.624;139.698;2024-01-06T23:00:14;100765.00;;;6.43;39.12
53659;BME280;41524;35.624;139.698;2024-01-06T23:05:11;100771.00;;;6.56;38.31
53659;BME280;41524;35.624;139.698;2024-01-06T23:10:11;100775.00;;;7.52;36.65
53659;BME280;41524;35.624;139.698;2024-01-06T23:15:10;100766.00;;;10.55;31.98
53659;BME280;41524;35.624;139.698;2024-01-06T23:20:12;100771.00;;;14.97;27.15
53659;BME280;41524;35.624;139.698;2024-01-06T23:25:11;100774.00;;;16.87;24.46
53659;BME280;41524;35.624;139.698;2024-01-06T23:30:11;100790.00;;;13.30;26.80
53659;BME280;41524;35.624;139.698;2024-01-06T23:35:10;100774.00;;;15.64;24.69
53659;BME280;41524;35.624;139.698;2024-01-06T23:40:11;100770.00;;;16.97;23.36
53659;BME280;41524;35.624;139.698;2024-01-06T23:45:11;100782.00;;;16.22;24.14
53659;BME280;41524;35.624;139.698;2024-01-06T23:50:11;100776.00;;;17.61;22.51
53659;BME280;41524;35.624;139.698;2024-01-06T23:55:11;100771.00;;;19.22;21.15
